createdAt,value
2023-05-22T00:01:26.597Z,5.18
2023-05-22T00:06:29.987Z,5.22
2023-05-22T00:11:34.823Z,6.00
2023-05-22T00:16:39.125Z,4.25
2023-05-22T00:21:42.617Z,4.63
2023-05-22T00:26:45.477Z,4.72
2023-05-22T00:31:49.729Z,4.38
2023-05-22T00:36:52.596Z,4.88
2023-05-22T00:41:55.569Z,4.28
2023-05-22T00:47:00.032Z,5.07
2023-05-22T00:52:04.501Z,4.95
2023-05-22T00:57:08.043Z,5.13
2023-05-22T01:02:13.463Z,5.63
2023-05-22T01:07:17.906Z,5.72
2023-05-22T01:12:28.508Z,4.50
2023-05-22T01:17:40.899Z,4.53
2023-05-22T01:23:20.221Z,4.47
2023-05-22T01:28:43.081Z,3.72
2023-05-22T01:33:52.257Z,4.85
2023-05-22T01:38:56.572Z,4.63
2023-05-22T01:44:00.156Z,5.78
2023-05-22T01:49:04.546Z,5.20
2023-05-22T01:54:18.129Z,4.18
2023-05-22T01:59:28.057Z,4.95
2023-05-22T02:04:33.775Z,5.30
2023-05-22T02:09:38.076Z,4.82
2023-05-22T02:14:42.402Z,5.45
2023-05-22T02:19:46.825Z,4.55
2023-05-22T02:24:50.525Z,4.00
2023-05-22T02:29:53.406Z,4.97
2023-05-22T02:34:58.625Z,4.18
2023-05-22T02:40:01.512Z,4.28
2023-05-22T02:45:05.098Z,5.30
2023-05-22T02:50:10.236Z,4.53
2023-05-22T02:55:13.318Z,4.25
2023-05-22T03:00:16.962Z,4.65
2023-05-22T03:05:21.252Z,4.85
2023-05-22T03:10:24.488Z,5.15
2023-05-22T03:15:27.380Z,5.75
2023-05-22T03:20:32.776Z,4.85
2023-05-22T03:25:35.846Z,5.45
2023-05-22T03:30:38.908Z,4.90
2023-05-22T03:35:44.649Z,5.05
2023-05-22T03:40:47.548Z,4.95
2023-05-22T03:45:50.455Z,3.97
2023-05-22T03:50:54.690Z,4.47
2023-05-22T03:55:58.990Z,4.38
2023-05-22T04:01:01.991Z,4.32
2023-05-22T04:06:07.564Z,4.88
2023-05-22T04:11:11.087Z,3.85
2023-05-22T04:16:17.500Z,5.50
2023-05-22T04:21:23.639Z,5.72
2023-05-22T04:26:29.574Z,5.93
2023-05-22T04:31:32.562Z,5.53
2023-05-22T04:36:38.904Z,4.40
2023-05-22T04:41:41.902Z,4.45
2023-05-22T04:46:44.821Z,4.78
2023-05-22T04:51:49.149Z,5.03
2023-05-22T04:56:52.576Z,5.65
2023-05-22T05:01:55.469Z,5.88
2023-05-22T05:06:59.694Z,5.53
2023-05-22T05:12:03.220Z,7.30
2023-05-22T05:17:06.473Z,13.30
2023-05-22T05:22:10.837Z,8.52
2023-05-22T05:27:13.961Z,7.88
2023-05-22T05:32:17.423Z,7.70
2023-05-22T05:37:21.777Z,7.95
2023-05-22T05:42:24.673Z,10.30
2023-05-22T05:47:29.681Z,7.30
2023-05-22T05:52:34.222Z,7.55
2023-05-22T05:57:37.135Z,8.00
2023-05-22T06:02:40.138Z,12.57
2023-05-22T06:07:44.609Z,7.88
2023-05-22T06:12:47.516Z,7.03
2023-05-22T06:17:50.490Z,21.70
2023-05-22T06:22:54.775Z,13.77
2023-05-22T06:27:57.739Z,11.38
2023-05-22T06:33:00.640Z,37.75
2023-05-22T06:38:04.940Z,35.67
2023-05-22T06:43:07.867Z,27.42
2023-05-22T06:48:11.453Z,23.17
2023-05-22T06:53:15.673Z,24.88
2023-05-22T06:58:19.034Z,20.40
2023-05-22T07:03:22.304Z,20.08
2023-05-22T07:08:28.425Z,16.83
2023-05-22T07:13:33.262Z,15.32
2023-05-22T07:18:36.432Z,13.00
2023-05-22T07:23:40.712Z,15.93
2023-05-22T07:28:43.598Z,13.60
2023-05-22T07:33:46.467Z,14.07
2023-05-22T07:38:50.728Z,12.77
2023-05-22T07:43:53.827Z,13.63
2023-05-22T07:48:56.696Z,13.73
2023-05-22T07:54:00.950Z,13.45
2023-05-22T07:59:03.838Z,11.23
2023-05-22T08:04:07.149Z,10.23
2023-05-22T08:09:11.887Z,12.43
2023-05-22T08:14:14.941Z,14.27
2023-05-22T08:19:17.925Z,11.63
2023-05-22T08:24:22.423Z,9.98
2023-05-22T08:29:26.121Z,12.65
2023-05-22T08:34:29.510Z,13.43
2023-05-22T08:39:33.729Z,13.93
2023-05-22T08:44:36.744Z,11.07
2023-05-22T08:49:41.010Z,8.57
2023-05-22T08:54:53.166Z,14.38
2023-05-22T08:59:56.098Z,13.02
2023-05-22T09:04:59.016Z,11.88
2023-05-22T09:10:05.301Z,12.30
2023-05-22T09:15:12.336Z,12.25
2023-05-22T09:20:15.856Z,9.40
2023-05-22T09:25:21.583Z,13.40
2023-05-22T09:30:24.745Z,13.75
2023-05-22T09:35:28.146Z,13.90
2023-05-22T09:40:34.986Z,10.93
2023-05-22T09:45:39.464Z,13.45
2023-05-22T09:50:42.342Z,10.45
2023-05-22T09:55:49.157Z,13.57
2023-05-22T10:00:55.740Z,10.55
2023-05-22T10:05:59.865Z,8.45
2023-05-22T10:11:06.315Z,8.57
2023-05-22T10:16:12.055Z,8.35
2023-05-22T10:21:16.292Z,7.80
2023-05-22T10:26:20.881Z,8.60
2023-05-22T10:31:30.605Z,10.05
2023-05-22T10:36:48.332Z,8.18
2023-05-22T10:41:53.692Z,7.45
2023-05-22T10:46:56.616Z,8.40
2023-05-22T10:51:59.679Z,8.38
2023-05-22T10:57:14.730Z,6.22
2023-05-22T11:02:22.175Z,6.75
2023-05-22T11:07:25.304Z,7.28
2023-05-22T11:12:31.297Z,7.80
2023-05-22T11:17:41.412Z,5.60
2023-05-22T11:22:50.627Z,6.72
2023-05-22T11:27:56.138Z,6.35
2023-05-22T11:33:00.435Z,7.13
2023-05-22T11:38:07.293Z,7.18
2023-05-22T11:43:11.655Z,6.47
2023-05-22T11:48:15.698Z,6.57
2023-05-22T11:53:20.196Z,6.45
2023-05-22T11:58:28.562Z,7.07
2023-05-22T12:03:32.567Z,5.30
2023-05-22T12:08:35.798Z,7.10
2023-05-22T12:13:40.263Z,5.78
2023-05-22T12:18:43.398Z,5.50
2023-05-22T12:23:50.508Z,6.43
2023-05-22T12:28:55.664Z,5.22
2023-05-22T12:33:59.064Z,8.63
2023-05-22T12:39:01.942Z,5.68
2023-05-22T12:44:06.640Z,6.55
2023-05-22T12:49:09.838Z,7.65
2023-05-22T12:54:14.761Z,6.20
2023-05-22T12:59:20.743Z,6.93
2023-05-22T13:04:23.885Z,5.60
2023-05-22T13:09:26.785Z,5.90
2023-05-22T13:14:31.043Z,5.82
2023-05-22T13:19:34.684Z,5.20
2023-05-22T13:24:37.757Z,4.93
2023-05-22T13:29:41.949Z,7.63
2023-05-22T13:34:44.965Z,6.38
2023-05-22T13:39:48.134Z,5.32
2023-05-22T13:44:52.365Z,4.72
2023-05-22T13:49:55.253Z,4.05
2023-05-22T13:54:58.136Z,5.20
2023-05-22T14:00:02.428Z,7.20
2023-05-22T14:05:06.014Z,4.50
2023-05-22T14:10:10.262Z,5.38
2023-05-22T14:15:16.071Z,5.45
2023-05-22T14:20:19.346Z,5.18
2023-05-22T14:25:22.323Z,5.43
2023-05-22T14:30:26.669Z,5.70
2023-05-22T14:35:29.652Z,4.88
2023-05-22T14:40:32.524Z,4.93
2023-05-22T14:45:36.764Z,5.85
2023-05-22T14:50:39.657Z,4.53
2023-05-22T14:55:42.669Z,4.88
2023-05-22T15:00:47.394Z,5.85
2023-05-22T15:05:50.332Z,5.35
2023-05-22T15:10:53.625Z,5.05
2023-05-22T15:15:58.880Z,4.70
2023-05-22T15:21:02.148Z,4.80
2023-05-22T15:26:05.187Z,4.88
2023-05-22T15:31:09.506Z,3.92
2023-05-22T15:36:12.454Z,4.68
2023-05-22T15:41:15.326Z,4.20
2023-05-22T15:46:19.727Z,4.22
2023-05-22T15:51:22.619Z,5.05
2023-05-22T15:56:25.982Z,4.75
2023-05-22T16:01:30.389Z,4.60
2023-05-22T16:06:33.409Z,4.43
2023-05-22T16:11:37.769Z,5.00
2023-05-22T16:16:41.976Z,5.18
2023-05-22T16:21:45.251Z,4.43
2023-05-22T16:26:48.165Z,4.95
2023-05-22T16:31:52.679Z,6.10
2023-05-22T16:36:55.581Z,8.38
2023-05-22T16:41:58.467Z,8.63
2023-05-22T16:47:02.795Z,6.53
2023-05-22T16:52:06.263Z,7.35
2023-05-22T16:57:09.223Z,9.63
2023-05-22T17:02:13.678Z,8.32
2023-05-22T17:07:16.670Z,5.78
2023-05-22T17:12:19.584Z,9.70
2023-05-22T17:17:23.818Z,6.25
2023-05-22T17:22:26.768Z,5.88
2023-05-22T17:27:36.173Z,5.25
2023-05-22T17:32:41.162Z,6.88
2023-05-22T17:37:44.063Z,17.77
2023-05-22T17:42:46.987Z,10.93
2023-05-22T17:47:51.267Z,5.68
2023-05-22T17:52:54.192Z,11.60
2023-05-22T17:57:57.232Z,7.25
2023-05-22T18:03:01.517Z,6.30
2023-05-22T18:08:04.487Z,6.63
2023-05-22T18:13:07.672Z,4.90
2023-05-22T18:18:13.152Z,5.22
2023-05-22T18:23:16.314Z,7.18
2023-05-22T18:28:23.289Z,6.43
2023-05-22T18:33:27.584Z,7.82
2023-05-22T18:38:30.723Z,5.65
2023-05-22T18:43:33.788Z,7.93
2023-05-22T18:48:38.018Z,5.72
2023-05-22T18:53:40.874Z,7.30
2023-05-22T18:58:43.767Z,7.85
2023-05-22T19:03:47.978Z,5.05
2023-05-22T19:08:50.870Z,14.95
2023-05-22T19:13:53.961Z,17.33
2023-05-22T19:18:58.210Z,10.05
2023-05-22T19:24:01.162Z,6.55
2023-05-22T19:29:04.162Z,7.10
2023-05-22T19:34:08.421Z,7.50
2023-05-22T19:39:11.434Z,6.80
2023-05-22T19:44:14.339Z,5.50
2023-05-22T19:49:18.546Z,7.82
2023-05-22T19:54:21.497Z,7.68
2023-05-22T19:59:24.469Z,8.10
2023-05-22T20:04:28.702Z,6.15
2023-05-22T20:09:31.603Z,7.03
2023-05-22T20:14:34.495Z,7.57
2023-05-22T20:19:38.814Z,6.15
2023-05-22T20:24:41.837Z,7.15
2023-05-22T20:29:44.761Z,6.00
2023-05-22T20:34:50.087Z,7.10
2023-05-22T20:39:53.104Z,6.22
2023-05-22T20:44:56.021Z,5.57
2023-05-22T20:50:00.268Z,7.88
2023-05-22T20:55:03.344Z,14.00
2023-05-22T21:00:11.161Z,9.23
2023-05-22T21:05:15.577Z,7.97
2023-05-22T21:10:18.582Z,6.93
2023-05-22T21:15:21.554Z,8.00
2023-05-22T21:20:27.554Z,5.88
2023-05-22T21:25:30.572Z,7.40
2023-05-22T21:30:33.465Z,5.78
2023-05-22T21:35:37.760Z,6.47
2023-05-22T21:40:42.618Z,7.40
2023-05-22T21:45:46.036Z,7.75
2023-05-22T21:50:50.274Z,8.75
2023-05-22T21:55:53.160Z,6.82
2023-05-22T22:00:56.072Z,7.38
2023-05-22T22:06:00.329Z,6.15
2023-05-22T22:11:03.546Z,8.30
2023-05-22T22:16:06.701Z,6.22
2023-05-22T22:21:47.422Z,5.30
2023-05-22T22:26:51.645Z,5.68
2023-05-22T22:31:54.634Z,6.03
2023-05-22T22:36:57.622Z,6.10
2023-05-22T22:42:04.980Z,7.18
2023-05-22T22:47:08.350Z,6.07
2023-05-22T22:52:11.281Z,6.05
2023-05-22T22:57:15.742Z,5.15
2023-05-22T23:02:18.612Z,5.75
2023-05-22T23:07:24.158Z,5.53
2023-05-22T23:12:28.359Z,5.88
2023-05-22T23:17:31.595Z,6.25
2023-05-22T23:22:34.516Z,7.78
2023-05-22T23:27:39.313Z,5.60
2023-05-22T23:32:42.301Z,5.57
2023-05-22T23:37:45.285Z,6.15
2023-05-22T23:42:49.532Z,7.43
2023-05-22T23:47:52.421Z,6.53
2023-05-22T23:52:55.346Z,5.93
2023-05-22T23:57:59.565Z,6.82
